createdAt,value
2016-11-22T00:00:44.268Z,16.6
2016-11-22T00:01:43.978Z,16.61
2016-11-22T00:02:44.314Z,16.61
2016-11-22T00:03:44.020Z,16.58
2016-11-22T00:04:44.041Z,16.56
2016-11-22T00:05:44.377Z,16.64
2016-11-22T00:06:44.404Z,16.61
2016-11-22T00:07:44.423Z,16.74
2016-11-22T00:08:44.475Z,16.64
2016-11-22T00:09:44.468Z,16.64
2016-11-22T00:10:44.512Z,16.74
2016-11-22T00:11:44.519Z,16.71
2016-11-22T00:12:44.845Z,16.69
2016-11-22T00:13:44.554Z,16.57
2016-11-22T00:14:44.916Z,16.66
2016-11-22T00:15:44.609Z,16.58
2016-11-22T00:16:44.617Z,16.58
2016-11-22T00:17:44.326Z,16.57
2016-11-22T00:18:44.665Z,16.71
2016-11-22T00:20:44.388Z,16.74
2016-11-22T00:21:44.411Z,16.66
2016-11-22T00:22:44.749Z,16.72
2016-11-22T00:23:44.771Z,16.72
2016-11-22T00:24:45.110Z,16.74
2016-11-22T00:25:45.142Z,16.74
2016-11-22T00:26:44.835Z,16.74
2016-11-22T00:27:44.860Z,16.72
2016-11-22T00:28:44.880Z,16.78
2016-11-22T00:29:44.592Z,16.75
2016-11-22T00:30:45.270Z,16.86
2016-11-22T00:31:44.976Z,16.74
2016-11-22T00:32:44.655Z,16.81
2016-11-22T00:33:45.004Z,16.79
2016-11-22T00:34:45.012Z,16.89
2016-11-22T00:35:44.720Z,16.75
2016-11-22T00:36:44.773Z,16.58
2016-11-22T00:37:44.762Z,16.72
2016-11-22T00:38:44.790Z,16.74
2016-11-22T00:39:44.811Z,16.68
2016-11-22T00:40:45.146Z,16.74
2016-11-22T00:41:45.484Z,16.78
2016-11-22T00:42:45.503Z,16.6
2016-11-22T00:43:45.215Z,16.71
2016-11-22T00:44:45.233Z,16.76
2016-11-22T00:45:45.572Z,16.75
2016-11-22T00:46:45.587Z,16.74
2016-11-22T00:47:44.988Z,16.75
2016-11-22T00:48:45.005Z,16.76
2016-11-22T00:49:45.345Z,16.78
2016-11-22T00:50:45.071Z,16.83
2016-11-22T00:51:45.083Z,16.79
2016-11-22T00:52:45.410Z,16.72
2016-11-22T00:53:45.448Z,16.56
2016-11-22T00:54:45.453Z,16.68
2016-11-22T00:55:45.478Z,16.66
2016-11-22T00:56:45.183Z,16.6
2016-11-22T00:57:45.516Z,16.66
2016-11-22T00:58:45.859Z,16.81
2016-11-22T00:59:45.561Z,16.78
2016-11-22T01:00:45.912Z,16.78
2016-11-22T01:01:45.613Z,16.68
2016-11-22T01:02:45.313Z,16.71
2016-11-22T01:03:45.648Z,16.68
2016-11-22T01:04:45.986Z,16.64
2016-11-22T01:05:45.384Z,16.64
2016-11-22T01:06:46.066Z,16.71
2016-11-22T01:07:45.741Z,16.75
2016-11-22T01:08:45.761Z,16.69
2016-11-22T01:09:45.470Z,16.64
2016-11-22T01:10:45.805Z,16.69
2016-11-22T01:11:45.828Z,16.72
2016-11-22T01:12:46.203Z,16.75
2016-11-22T01:13:45.885Z,16.79
2016-11-22T01:14:45.584Z,16.75
2016-11-22T01:15:45.600Z,16.83
2016-11-22T01:16:45.947Z,16.9
2016-11-22T01:17:45.962Z,16.84
2016-11-22T01:18:45.989Z,16.94
2016-11-22T01:19:46.008Z,16.91
2016-11-22T01:20:46.031Z,17.09
2016-11-22T01:21:45.733Z,17.02
2016-11-22T01:22:46.078Z,17.11
2016-11-22T01:23:45.786Z,17.02
2016-11-22T01:24:46.436Z,17.01
2016-11-22T01:25:46.138Z,17.05
2016-11-22T01:26:45.848Z,17.08
2016-11-22T01:27:45.873Z,17.06
2016-11-22T01:28:46.211Z,17.14
2016-11-22T01:29:45.925Z,17.09
2016-11-22T01:30:46.568Z,17.19
2016-11-22T01:31:46.593Z,17.11
2016-11-22T01:32:46.297Z,17.12
2016-11-22T01:33:46.641Z,17.16
2016-11-22T01:34:46.662Z,17.23
2016-11-22T01:35:46.694Z,17.23
2016-11-22T01:36:46.070Z,17.29
2016-11-22T01:37:46.416Z,17.31
2016-11-22T01:38:46.438Z,17.42
2016-11-22T01:39:46.143Z,17.38
2016-11-22T01:40:46.476Z,17.41
2016-11-22T01:41:46.498Z,17.46
2016-11-22T01:42:46.844Z,17.54
2016-11-22T01:43:46.547Z,17.59
2016-11-22T01:44:46.254Z,17.59
2016-11-22T01:45:46.587Z,17.68
2016-11-22T01:46:46.613Z,17.68
2016-11-22T01:47:46.633Z,17.63
2016-11-22T01:48:46.348Z,17.72
2016-11-22T01:49:46.680Z,17.78
2016-11-22T01:50:46.402Z,17.9
2016-11-22T01:51:46.728Z,17.87
2016-11-22T01:52:46.751Z,17.94
2016-11-22T01:53:46.769Z,17.97
2016-11-22T01:54:46.806Z,17.98
2016-11-22T01:55:46.500Z,18.05
2016-11-22T01:56:46.838Z,18.01
2016-11-22T01:57:46.864Z,18.1
2016-11-22T01:58:46.896Z,18.08
2016-11-22T01:59:46.911Z,18.22
2016-11-22T02:00:46.930Z,18.1
2016-11-22T02:01:47.270Z,18.2
2016-11-22T02:02:47.288Z,18.16
2016-11-22T02:03:47.314Z,18.25
2016-11-22T02:04:47.022Z,18.4
2016-11-22T02:05:47.075Z,18.33
2016-11-22T02:06:47.063Z,18.35
2016-11-22T02:07:47.405Z,18.38
2016-11-22T02:08:46.798Z,18.35
2016-11-22T02:09:47.468Z,18.44
2016-11-22T02:10:46.848Z,18.44
2016-11-22T02:11:47.180Z,18.5
2016-11-22T02:12:47.518Z,18.49
2016-11-22T02:13:47.559Z,18.5
2016-11-22T02:14:47.565Z,18.5
2016-11-22T02:15:47.273Z,18.55
2016-11-22T02:16:47.298Z,18.62
2016-11-22T02:17:47.003Z,18.68
2016-11-22T02:18:47.025Z,18.65
2016-11-22T02:19:47.054Z,18.65
2016-11-22T02:20:47.389Z,18.65
2016-11-22T02:21:47.432Z,18.65
2016-11-22T02:22:47.434Z,18.63
2016-11-22T02:23:47.461Z,18.62
2016-11-22T02:24:47.482Z,18.65
2016-11-22T02:25:47.525Z,18.66
2016-11-22T02:26:47.534Z,18.65
2016-11-22T02:27:47.550Z,18.65
2016-11-22T02:28:47.574Z,18.62
2016-11-22T02:29:47.605Z,18.68
2016-11-22T02:30:47.623Z,18.66
2016-11-22T02:31:47.644Z,18.63
2016-11-22T02:32:47.984Z,18.6
2016-11-22T02:33:47.742Z,18.52
2016-11-22T02:34:47.711Z,18.53
2016-11-22T02:35:47.420Z,18.52
2016-11-22T02:36:48.073Z,18.55
2016-11-22T02:37:47.486Z,18.65
2016-11-22T02:38:47.813Z,18.63
2016-11-22T02:39:47.517Z,18.7
2016-11-22T02:40:48.178Z,18.66
2016-11-22T02:41:48.188Z,18.68
2016-11-22T02:42:47.895Z,18.77
2016-11-22T02:43:47.605Z,18.75
2016-11-22T02:44:47.632Z,18.78
2016-11-22T02:45:48.284Z,18.8
2016-11-22T02:46:48.309Z,18.88
2016-11-22T02:47:48.016Z,18.95
2016-11-22T02:48:47.726Z,18.86
2016-11-22T02:49:48.375Z,18.92
2016-11-22T02:50:47.771Z,18.93
2016-11-22T02:51:48.110Z,18.92
2016-11-22T02:52:47.827Z,18.98
2016-11-22T02:53:47.839Z,18.98
2016-11-22T02:54:48.494Z,19.04
2016-11-22T02:55:48.208Z,19.02
2016-11-22T02:56:47.921Z,19.02
2016-11-22T02:57:48.564Z,19.15
2016-11-22T02:58:48.594Z,19.04
2016-11-22T02:59:48.297Z,19.11
2016-11-22T03:00:48.637Z,18.93
2016-11-22T03:01:48.343Z,18.98
2016-11-22T03:02:48.066Z,18.99
2016-11-22T03:03:48.392Z,18.93
2016-11-22T03:04:48.417Z,19.02
2016-11-22T03:05:48.925Z,18.93
2016-11-22T03:06:48.822Z,18.95
2016-11-22T03:07:48.485Z,18.92
2016-11-22T03:08:48.836Z,18.93
2016-11-22T03:09:48.532Z,18.98
2016-11-22T03:10:48.876Z,18.99
2016-11-22T03:11:48.577Z,18.98
2016-11-22T03:12:48.290Z,18.92
2016-11-22T03:13:48.316Z,18.83
2016-11-22T03:14:48.651Z,18.78
2016-11-22T03:15:49.009Z,18.88
2016-11-22T03:16:48.692Z,18.8
2016-11-22T03:17:48.722Z,18.81
2016-11-22T03:18:48.738Z,18.83
2016-11-22T03:19:48.765Z,18.81
2016-11-22T03:20:48.491Z,18.81
2016-11-22T03:21:48.493Z,18.77
2016-11-22T03:22:48.832Z,18.78
2016-11-22T03:23:48.553Z,18.75
2016-11-22T03:24:48.884Z,18.74
2016-11-22T03:25:48.899Z,18.89
2016-11-22T03:26:48.926Z,18.83
2016-11-22T03:27:48.954Z,18.84
2016-11-22T03:28:48.657Z,18.83
2016-11-22T03:29:48.997Z,18.9
2016-11-22T03:30:49.337Z,18.86
2016-11-22T03:31:48.728Z,18.93
2016-11-22T03:32:48.772Z,18.74
2016-11-22T03:33:49.096Z,18.86
2016-11-22T03:34:49.113Z,18.81
2016-11-22T03:35:49.450Z,18.95
2016-11-22T03:36:48.851Z,18.95
2016-11-22T03:37:48.863Z,18.9
2016-11-22T03:38:49.205Z,18.96
2016-11-22T03:39:49.233Z,18.96
2016-11-22T03:40:49.304Z,18.89
2016-11-22T03:41:49.274Z,18.77
2016-11-22T03:42:49.302Z,18.84
2016-11-22T03:43:49.010Z,18.83
2016-11-22T03:44:49.349Z,18.89
2016-11-22T03:45:49.056Z,18.83
2016-11-22T03:46:49.397Z,18.83
2016-11-22T03:47:49.418Z,18.92
2016-11-22T03:48:49.464Z,18.95
2016-11-22T03:49:49.465Z,18.95
2016-11-22T03:50:49.825Z,18.96
2016-11-22T03:51:49.195Z,18.93
2016-11-22T03:52:49.854Z,18.92
2016-11-22T03:53:49.245Z,18.92
2016-11-22T03:54:49.268Z,18.83
2016-11-22T03:55:49.604Z,18.95
2016-11-22T03:56:49.311Z,18.81
2016-11-22T03:57:49.653Z,18.86
2016-11-22T03:58:49.359Z,18.83
2016-11-22T03:59:49.698Z,18.68
2016-11-22T04:00:49.408Z,18.75
2016-11-22T04:01:50.061Z,18.74
2016-11-22T04:02:49.457Z,18.73
2016-11-22T04:03:49.801Z,18.71
2016-11-22T04:04:50.135Z,18.71
2016-11-22T04:05:49.840Z,18.68
2016-11-22T04:06:49.863Z,18.66
2016-11-22T04:07:49.572Z,18.66
2016-11-22T04:08:49.596Z,18.7
2016-11-22T04:09:49.949Z,18.66
2016-11-22T04:10:50.266Z,18.52
2016-11-22T04:11:49.975Z,18.58
2016-11-22T04:12:49.999Z,18.58
2016-11-22T04:13:50.023Z,18.47
2016-11-22T04:14:50.044Z,18.6
2016-11-22T04:15:49.757Z,18.5
2016-11-22T04:16:50.094Z,18.52
2016-11-22T04:17:50.429Z,18.4
2016-11-22T04:18:50.139Z,18.4
2016-11-22T04:19:50.176Z,18.33
2016-11-22T04:20:49.873Z,18.37
2016-11-22T04:21:50.547Z,18.26
2016-11-22T04:22:50.235Z,18.26
2016-11-22T04:23:50.252Z,18.26
2016-11-22T04:24:50.281Z,18.33
2016-11-22T04:25:50.301Z,18.2
2016-11-22T04:26:50.007Z,18.26
2016-11-22T04:27:50.025Z,18.22
2016-11-22T04:28:50.361Z,18.23
2016-11-22T04:29:50.073Z,18.26
2016-11-22T04:30:50.093Z,18.38
2016-11-22T04:31:50.432Z,18.23
2016-11-22T04:32:50.143Z,18.26
2016-11-22T04:33:50.794Z,18.37
2016-11-22T04:34:50.504Z,18.38
2016-11-22T04:35:50.525Z,18.28
2016-11-22T04:36:50.234Z,18.28
2016-11-22T04:37:50.253Z,18.23
2016-11-22T04:38:50.910Z,18.13
2016-11-22T04:39:50.964Z,18.18
2016-11-22T04:40:50.977Z,18.08
2016-11-22T04:41:50.351Z,18.16
2016-11-22T04:42:51.000Z,18.22
2016-11-22T04:43:50.710Z,18.07
2016-11-22T04:44:50.427Z,18.04
2016-11-22T04:45:50.754Z,17.98
2016-11-22T04:46:50.775Z,17.94
2016-11-22T04:47:51.122Z,18
2016-11-22T04:48:51.138Z,17.9
2016-11-22T04:49:50.847Z,17.9
2016-11-22T04:50:50.552Z,17.85
2016-11-22T04:51:50.903Z,17.85
2016-11-22T04:52:50.915Z,17.87
2016-11-22T04:53:50.955Z,17.79
2016-11-22T04:54:50.953Z,17.8
2016-11-22T04:55:50.979Z,17.78
2016-11-22T04:56:50.709Z,17.68
2016-11-22T04:57:51.022Z,17.74
2016-11-22T04:58:51.048Z,17.67
2016-11-22T04:59:50.756Z,17.64
2016-11-22T05:00:50.773Z,17.59
2016-11-22T05:01:51.432Z,17.67
2016-11-22T05:02:51.135Z,17.56
2016-11-22T05:03:50.846Z,17.56
2016-11-22T05:04:50.865Z,17.51
2016-11-22T05:05:50.887Z,17.49
2016-11-22T05:06:51.544Z,17.49
2016-11-22T05:07:51.569Z,17.48
2016-11-22T05:08:50.989Z,17.46
2016-11-22T05:09:51.293Z,17.41
2016-11-22T05:10:51.001Z,17.33
2016-11-22T05:11:51.337Z,17.41
2016-11-22T05:12:51.364Z,17.34
2016-11-22T05:13:51.382Z,17.38
2016-11-22T05:14:51.093Z,17.34
2016-11-22T05:15:51.763Z,17.39
2016-11-22T05:16:51.142Z,17.38
2016-11-22T05:17:51.467Z,17.39
2016-11-22T05:18:51.182Z,17.29
2016-11-22T05:19:51.211Z,17.23
2016-11-22T05:20:51.541Z,17.31
2016-11-22T05:21:51.568Z,17.29
2016-11-22T05:22:51.576Z,17.34
2016-11-22T05:23:51.611Z,17.3
2016-11-22T05:24:51.313Z,17.12
2016-11-22T05:25:51.652Z,17.31
2016-11-22T05:26:51.677Z,17.15
2016-11-22T05:27:51.693Z,17.23
2016-11-22T05:28:51.425Z,17.23
2016-11-22T05:29:51.753Z,17.11
2016-11-22T05:30:51.761Z,17.19
2016-11-22T05:31:52.103Z,17.22
2016-11-22T05:32:51.813Z,17.15
2016-11-22T05:33:51.831Z,17.09
2016-11-22T05:34:51.849Z,17.2
2016-11-22T05:35:51.889Z,17.27
2016-11-22T05:36:51.594Z,17.11
2016-11-22T05:37:51.607Z,17.08
2016-11-22T05:38:52.265Z,17.05
2016-11-22T05:39:51.647Z,17.09
2016-11-22T05:40:51.670Z,17.08
2016-11-22T05:41:52.006Z,16.94
2016-11-22T05:42:52.354Z,16.93
2016-11-22T05:43:52.076Z,16.91
2016-11-22T05:44:52.072Z,16.9
2016-11-22T05:45:52.099Z,16.91
2016-11-22T05:46:52.143Z,16.93
2016-11-22T05:47:52.140Z,16.96
2016-11-22T05:48:52.477Z,16.89
2016-11-22T05:49:52.211Z,16.86
2016-11-22T05:50:51.888Z,16.9
2016-11-22T05:51:51.924Z,16.89
2016-11-22T05:52:52.248Z,16.79
2016-11-22T05:53:52.288Z,16.76
2016-11-22T05:54:52.290Z,16.75
2016-11-22T05:55:52.631Z,16.68
2016-11-22T05:56:52.332Z,16.64
2016-11-22T05:57:52.697Z,16.61
2016-11-22T05:58:52.073Z,16.64
2016-11-22T05:59:52.721Z,16.57
2016-11-22T06:00:52.418Z,16.61
2016-11-22T06:01:52.156Z,16.57
2016-11-22T06:02:52.459Z,16.61
2016-11-22T06:03:52.486Z,16.61
2016-11-22T06:04:52.195Z,16.53
2016-11-22T06:05:52.532Z,16.56
2016-11-22T06:06:52.867Z,16.56
2016-11-22T06:07:52.574Z,16.64
2016-11-22T06:08:52.594Z,16.58
2016-11-22T06:09:52.301Z,16.53
2016-11-22T06:10:52.638Z,16.56
2016-11-22T06:11:52.659Z,16.42
2016-11-22T06:12:53.002Z,16.49
2016-11-22T06:13:52.706Z,16.41
2016-11-22T06:14:52.426Z,16.57
2016-11-22T06:15:52.437Z,16.43
2016-11-22T06:16:52.790Z,16.41
2016-11-22T06:17:53.111Z,16.36
2016-11-22T06:18:53.125Z,16.42
2016-11-22T06:19:52.513Z,16.39
2016-11-22T06:20:52.539Z,16.43
2016-11-22T06:21:52.902Z,16.47
2016-11-22T06:22:52.580Z,16.46
2016-11-22T06:23:52.916Z,16.46
2016-11-22T06:25:52.647Z,16.57
2016-11-22T06:26:52.668Z,16.56
2016-11-22T06:27:52.690Z,16.58
2016-11-22T06:28:53.355Z,16.53
2016-11-22T06:29:52.731Z,16.71
2016-11-22T06:30:53.068Z,16.58
2016-11-22T06:31:53.405Z,16.65
2016-11-22T06:32:53.119Z,16.61
2016-11-22T06:33:53.131Z,16.64
2016-11-22T06:34:53.472Z,16.66
2016-11-22T06:35:52.861Z,16.76
2016-11-22T06:36:53.195Z,16.78
2016-11-22T06:37:53.217Z,16.72
2016-11-22T06:38:52.936Z,16.75
2016-11-22T06:39:52.950Z,16.78
2016-11-22T06:40:53.600Z,16.79
2016-11-22T06:41:52.992Z,16.74
2016-11-22T06:42:53.330Z,16.72
2016-11-22T06:43:53.349Z,16.68
2016-11-22T06:44:53.386Z,16.56
2016-11-22T06:45:53.705Z,16.65
2016-11-22T06:46:53.104Z,16.68
2016-11-22T06:47:53.437Z,16.68
2016-11-22T06:48:53.146Z,16.5
2016-11-22T06:49:53.204Z,16.64
2016-11-22T06:50:53.189Z,16.68
2016-11-22T06:51:53.525Z,16.53
2016-11-22T06:52:53.232Z,16.53
2016-11-22T06:53:53.249Z,16.42
2016-11-22T06:54:53.280Z,16.42
2016-11-22T06:55:53.932Z,16.42
2016-11-22T06:56:53.635Z,16.39
2016-11-22T06:57:53.655Z,16.35
2016-11-22T06:58:53.675Z,16.33
2016-11-22T06:59:53.699Z,16.33
2016-11-22T07:00:53.740Z,16.32
2016-11-22T07:01:53.742Z,16.23
2016-11-22T07:02:53.443Z,16.2
2016-11-22T07:03:54.096Z,16.09
2016-11-22T07:04:53.804Z,16
2016-11-22T07:05:53.831Z,15.88
2016-11-22T07:06:53.844Z,15.86
2016-11-22T07:07:53.567Z,15.77
2016-11-22T07:08:53.889Z,15.9
2016-11-22T07:09:53.595Z,15.8
2016-11-22T07:10:53.944Z,15.91
2016-11-22T07:11:54.267Z,15.79
2016-11-22T07:12:54.023Z,15.82
2016-11-22T07:13:54.306Z,15.75
2016-11-22T07:14:53.699Z,15.65
2016-11-22T07:15:54.038Z,15.72
2016-11-22T07:16:54.057Z,15.68
2016-11-22T07:17:54.082Z,15.72
2016-11-22T07:18:54.421Z,15.79
2016-11-22T07:19:54.126Z,15.82
2016-11-22T07:20:54.461Z,15.83
2016-11-22T07:21:54.167Z,15.84
2016-11-22T07:22:54.187Z,15.83
2016-11-22T07:23:54.206Z,15.94
2016-11-22T07:24:54.541Z,16.04
2016-11-22T07:25:54.248Z,16.04
2016-11-22T07:26:54.270Z,15.98
2016-11-22T07:27:53.973Z,16.02
2016-11-22T07:28:53.993Z,15.98
2016-11-22T07:29:54.338Z,15.95
2016-11-22T07:30:54.037Z,16.02
2016-11-22T07:31:54.372Z,16.05
2016-11-22T07:32:54.088Z,15.94
2016-11-22T07:33:54.421Z,16.01
2016-11-22T07:34:54.118Z,16
2016-11-22T07:35:54.148Z,16.01
2016-11-22T07:36:54.487Z,15.9
2016-11-22T07:37:54.195Z,15.91
2016-11-22T07:38:54.940Z,15.92
2016-11-22T07:39:54.548Z,15.98
2016-11-22T07:40:54.878Z,15.97
2016-11-22T07:41:54.599Z,16
2016-11-22T07:42:54.609Z,15.9
2016-11-22T07:43:54.632Z,15.95
2016-11-22T07:44:54.651Z,15.98
2016-11-22T07:45:54.675Z,16.04
2016-11-22T07:46:54.690Z,16.02
2016-11-22T07:47:54.402Z,16.04
2016-11-22T07:48:54.752Z,16.12
2016-11-22T07:49:54.442Z,16.17
2016-11-22T07:50:54.465Z,16.12
2016-11-22T07:51:54.488Z,16.21
2016-11-22T07:52:54.824Z,16.17
2016-11-22T07:53:54.842Z,16.2
2016-11-22T07:54:54.865Z,16.16
2016-11-22T07:55:55.201Z,16.26
2016-11-22T07:56:54.592Z,16.13
2016-11-22T07:57:54.950Z,16.08
2016-11-22T07:58:55.265Z,16.13
2016-11-22T07:59:54.654Z,16.08
2016-11-22T08:00:55.006Z,16.09
2016-11-22T08:01:55.015Z,16.23
2016-11-22T08:02:54.721Z,16.26
2016-11-22T08:03:55.055Z,16.17
2016-11-22T08:04:55.098Z,16.08
2016-11-22T08:05:55.421Z,16.09
2016-11-22T08:06:55.434Z,16.12
2016-11-22T08:07:55.471Z,16.09
2016-11-22T08:08:55.477Z,16.1
2016-11-22T08:09:55.181Z,16.24
2016-11-22T08:10:55.249Z,16.15
2016-11-22T08:11:55.235Z,16.21
2016-11-22T08:12:55.280Z,16.24
2016-11-22T08:13:54.957Z,16.31
2016-11-22T08:14:55.287Z,16.33
2016-11-22T08:15:54.996Z,16.31
2016-11-22T08:16:55.338Z,16.39
2016-11-22T08:17:55.669Z,16.32
2016-11-22T08:18:55.377Z,16.39
2016-11-22T08:19:55.397Z,16.32
2016-11-22T08:20:55.421Z,16.33
2016-11-22T08:21:55.439Z,16.21
2016-11-22T08:22:55.775Z,16.26
2016-11-22T08:23:55.186Z,16.29
2016-11-22T08:24:55.528Z,16.39
2016-11-22T08:25:55.210Z,16.31
2016-11-22T08:26:55.864Z,16.42
2016-11-22T08:27:55.249Z,16.39
2016-11-22T08:28:55.274Z,16.39
2016-11-22T08:29:55.293Z,16.42
2016-11-22T08:30:55.631Z,16.43
2016-11-22T08:31:55.666Z,16.57
2016-11-22T08:32:55.701Z,16.41
2016-11-22T08:33:55.705Z,16.43
2016-11-22T08:34:55.401Z,16.53
2016-11-22T08:35:55.743Z,16.57
2016-11-22T08:36:55.447Z,16.58
2016-11-22T08:37:55.468Z,16.68
2016-11-22T08:38:55.489Z,16.6
2016-11-22T08:39:56.142Z,16.65
2016-11-22T08:40:56.161Z,16.72
2016-11-22T08:41:55.869Z,16.72
2016-11-22T08:42:55.890Z,16.68
2016-11-22T08:43:55.609Z,16.76
2016-11-22T08:44:55.619Z,16.78
2016-11-22T08:45:55.640Z,16.79
2016-11-22T08:46:55.999Z,16.84
2016-11-22T08:47:55.999Z,16.94
2016-11-22T08:48:55.705Z,16.96
2016-11-22T08:49:56.048Z,17.15
2016-11-22T08:50:55.747Z,17.06
2016-11-22T08:51:56.103Z,17.27
2016-11-22T08:52:56.110Z,17.26
2016-11-22T08:53:55.814Z,17.2
2016-11-22T08:54:56.167Z,17.15
2016-11-22T08:55:56.191Z,17.27
2016-11-22T08:56:55.882Z,17.31
2016-11-22T08:57:56.531Z,17.39
2016-11-22T08:58:56.240Z,17.48
2016-11-22T08:59:56.257Z,17.56
2016-11-22T09:00:55.973Z,17.48
2016-11-22T09:01:55.993Z,17.57
2016-11-22T09:02:56.024Z,17.65
2016-11-22T09:03:56.349Z,17.57
2016-11-22T09:04:56.080Z,17.56
2016-11-22T09:05:56.078Z,17.65
2016-11-22T09:06:56.415Z,17.76
2016-11-22T09:07:56.128Z,17.79
2016-11-22T09:08:56.774Z,17.71
2016-11-22T09:09:56.842Z,17.79
2016-11-22T09:10:56.507Z,17.83
2016-11-22T09:11:56.858Z,18
2016-11-22T09:12:56.548Z,18.03
2016-11-22T09:13:56.570Z,18.16
2016-11-22T09:14:56.600Z,18.31
2016-11-22T09:15:56.620Z,18.31
2016-11-22T09:16:56.643Z,18.47
2016-11-22T09:17:56.664Z,18.43
2016-11-22T09:18:56.687Z,18.55
2016-11-22T09:19:56.394Z,18.63
2016-11-22T09:20:56.740Z,18.74
2016-11-22T09:21:56.439Z,18.56
2016-11-22T09:22:56.466Z,18.62
2016-11-22T09:23:56.807Z,18.74
2016-11-22T09:24:56.507Z,18.74
2016-11-22T09:25:56.871Z,18.84
2016-11-22T09:26:57.188Z,18.96
2016-11-22T09:27:57.212Z,19.14
2016-11-22T09:28:56.924Z,19.15
2016-11-22T09:29:56.626Z,19.15
2016-11-22T09:30:56.964Z,19.44
2016-11-22T09:31:56.989Z,19.56
2016-11-22T09:32:57.011Z,19.39
2016-11-22T09:33:57.035Z,19.52
2016-11-22T09:34:57.376Z,19.56
2016-11-22T09:35:56.766Z,19.55
2016-11-22T09:36:57.109Z,19.66
2016-11-22T09:37:56.815Z,19.7
2016-11-22T09:38:57.475Z,19.66
2016-11-22T09:39:56.866Z,19.73
2016-11-22T09:40:57.667Z,19.79
2016-11-22T09:41:57.221Z,19.76
2016-11-22T09:42:57.247Z,19.76
2016-11-22T09:43:56.957Z,19.79
2016-11-22T09:44:57.305Z,19.71
2016-11-22T09:45:56.999Z,19.66
2016-11-22T09:46:57.027Z,19.62
2016-11-22T09:47:57.055Z,19.44
2016-11-22T09:48:57.395Z,19.41
2016-11-22T09:49:57.419Z,19.59
2016-11-22T09:50:57.440Z,19.64
2016-11-22T09:51:57.151Z,19.69
2016-11-22T09:52:57.173Z,19.69
2016-11-22T09:53:57.533Z,19.66
2016-11-22T09:54:57.223Z,19.66
2016-11-22T09:55:57.244Z,19.56
2016-11-22T09:56:57.275Z,19.27
2016-11-22T09:57:57.609Z,19.29
2016-11-22T09:58:57.633Z,19.37
2016-11-22T09:59:57.342Z,19.48
2016-11-22T10:00:57.994Z,19.58
2016-11-22T10:01:57.703Z,19.66
2016-11-22T10:02:57.730Z,19.76
2016-11-22T10:03:57.756Z,19.7
2016-11-22T10:04:57.776Z,19.77
2016-11-22T10:05:57.803Z,19.74
2016-11-22T10:06:57.833Z,19.7
2016-11-22T10:07:57.863Z,19.79
2016-11-22T10:08:57.875Z,19.73
2016-11-22T10:09:58.216Z,19.74
2016-11-22T10:10:57.604Z,19.79
2016-11-22T10:11:58.273Z,19.71
2016-11-22T10:12:57.970Z,19.58
2016-11-22T10:13:58.306Z,19.58
2016-11-22T10:14:57.700Z,19.55
2016-11-22T10:15:58.052Z,19.52
2016-11-22T10:16:58.060Z,19.56
2016-11-22T10:17:58.085Z,19.37
2016-11-22T10:18:58.106Z,19.22
2016-11-22T10:19:58.144Z,19.26
2016-11-22T10:20:58.158Z,19.19
2016-11-22T10:21:58.213Z,19.19
2016-11-22T10:22:58.518Z,19.19
2016-11-22T10:23:58.563Z,19.12
2016-11-22T10:24:58.250Z,19.15
2016-11-22T10:25:58.274Z,19.19
2016-11-22T10:26:57.982Z,19.15
2016-11-22T10:27:58.636Z,19.15
2016-11-22T10:28:58.343Z,19.15
2016-11-22T10:29:58.069Z,19.16
2016-11-22T10:30:58.080Z,19.16
2016-11-22T10:31:58.109Z,19.16
2016-11-22T10:32:58.119Z,19.04
2016-11-22T10:33:58.461Z,19.14
2016-11-22T10:34:58.168Z,19.04
2016-11-22T10:35:58.835Z,19.11
2016-11-22T10:36:58.531Z,19.08
2016-11-22T10:37:58.239Z,19.08
2016-11-22T10:38:58.894Z,19.15
2016-11-22T10:39:58.603Z,18.93
2016-11-22T10:40:58.626Z,18.84
2016-11-22T10:41:58.966Z,18.7
2016-11-22T10:42:58.675Z,18.73
2016-11-22T10:43:58.699Z,18.74
2016-11-22T10:44:58.722Z,18.77
2016-11-22T10:45:59.057Z,18.71
2016-11-22T10:46:58.449Z,18.78
2016-11-22T10:47:58.475Z,18.81
2016-11-22T10:48:58.812Z,18.71
2016-11-22T10:49:58.522Z,18.77
2016-11-22T10:50:58.881Z,18.81
2016-11-22T10:51:58.562Z,18.74
2016-11-22T10:52:58.599Z,18.75
2016-11-22T10:53:58.928Z,18.73
2016-11-22T10:54:59.253Z,18.84
2016-11-22T10:55:58.658Z,18.9
2016-11-22T10:56:58.685Z,18.95
2016-11-22T10:57:58.710Z,18.99
2016-11-22T10:58:59.043Z,18.89
2016-11-22T10:59:58.774Z,18.96
2016-11-22T11:00:59.091Z,18.96
2016-11-22T11:01:59.117Z,18.99
2016-11-22T11:02:59.453Z,18.98
2016-11-22T11:03:59.183Z,19.04
2016-11-22T11:04:59.187Z,18.95
2016-11-22T11:05:59.523Z,18.99
2016-11-22T11:06:59.234Z,19.02
2016-11-22T11:07:59.261Z,18.84
2016-11-22T11:08:59.312Z,18.83
2016-11-22T11:09:58.984Z,18.86
2016-11-22T11:10:59.327Z,18.81
2016-11-22T11:11:59.350Z,18.8
2016-11-22T11:12:59.373Z,18.88
2016-11-22T11:13:59.080Z,18.84
2016-11-22T11:14:59.106Z,18.84
2016-11-22T11:15:59.127Z,18.83
2016-11-22T11:16:59.464Z,18.83
2016-11-22T11:17:59.481Z,18.68
2016-11-22T11:18:59.831Z,18.74
2016-11-22T11:19:59.853Z,18.75
2016-11-22T11:20:59.556Z,18.62
2016-11-22T11:21:59.578Z,18.56
2016-11-22T11:22:59.284Z,18.58
2016-11-22T11:23:59.629Z,18.56
2016-11-22T11:24:59.649Z,18.58
2016-11-22T11:25:59.673Z,18.52
2016-11-22T11:26:59.384Z,18.58
2016-11-22T11:27:59.405Z,18.4
2016-11-22T11:28:59.424Z,18.47
2016-11-22T11:29:59.448Z,18.5
2016-11-22T11:30:59.793Z,18.52
2016-11-22T11:31:59.502Z,18.56
2016-11-22T11:32:59.831Z,18.56
2016-11-22T11:33:59.540Z,18.6
2016-11-22T11:34:59.563Z,18.52
2016-11-22T11:35:59.922Z,18.59
2016-11-22T11:36:59.925Z,18.63
2016-11-22T11:37:59.638Z,18.38
2016-11-22T11:38:59.655Z,18.38
2016-11-22T11:39:59.994Z,18.2
2016-11-22T11:41:00.333Z,18.4
2016-11-22T11:41:59.723Z,18.43
2016-11-22T11:43:00.059Z,18.44
2016-11-22T11:44:00.086Z,18.44
2016-11-22T11:44:59.823Z,18.52
2016-11-22T11:46:00.132Z,18.49
2016-11-22T11:47:00.468Z,18.44
2016-11-22T11:47:59.876Z,18.49
2016-11-22T11:49:00.227Z,18.52
2016-11-22T11:49:59.909Z,18.55
2016-11-22T11:51:00.241Z,18.49
2016-11-22T11:52:00.274Z,18.44
2016-11-22T11:53:00.611Z,18.47
2016-11-22T11:54:00.039Z,18.45
2016-11-22T11:55:00.338Z,18.44
2016-11-22T11:56:00.361Z,18.45
2016-11-22T11:57:00.384Z,18.45
2016-11-22T11:58:00.414Z,18.52
2016-11-22T11:59:00.113Z,18.44
2016-11-22T12:00:00.793Z,18.45
2016-11-22T12:01:00.476Z,18.52
2016-11-22T12:02:00.177Z,18.41
2016-11-22T12:03:00.217Z,18.49
2016-11-22T12:04:00.894Z,18.41
2016-11-22T12:05:00.563Z,18.53
2016-11-22T12:06:00.267Z,18.6
2016-11-22T12:07:00.612Z,18.5
2016-11-22T12:08:00.318Z,18.47
2016-11-22T12:09:00.985Z,18.35
2016-11-22T12:10:00.681Z,18.49
2016-11-22T12:11:01.014Z,18.53
2016-11-22T12:12:00.724Z,18.38
2016-11-22T12:13:00.743Z,18.33
2016-11-22T12:14:00.453Z,18.4
2016-11-22T12:15:00.518Z,18.43
2016-11-22T12:16:00.513Z,18.41
2016-11-22T12:17:00.553Z,18.43
2016-11-22T12:18:01.185Z,18.45
2016-11-22T12:19:00.881Z,18.41
2016-11-22T12:20:00.906Z,18.52
2016-11-22T12:21:00.612Z,18.49
2016-11-22T12:22:00.643Z,18.43
2016-11-22T12:23:00.981Z,18.4
2016-11-22T12:24:01.013Z,18.41
2016-11-22T12:25:01.024Z,18.53
2016-11-22T12:26:01.046Z,18.55
2016-11-22T12:27:01.071Z,18.6
2016-11-22T12:28:01.106Z,18.6
2016-11-22T12:29:01.427Z,18.65
2016-11-22T12:30:01.137Z,18.56
2016-11-22T12:31:00.839Z,18.58
2016-11-22T12:32:01.149Z,18.49
2016-11-22T12:33:01.321Z,18.5
2016-11-22T12:34:01.226Z,18.52
2016-11-22T12:35:01.248Z,18.63
2016-11-22T12:36:01.590Z,18.63
2016-11-22T12:37:01.299Z,18.62
2016-11-22T12:38:01.317Z,18.68
2016-11-22T12:39:01.339Z,18.73
2016-11-22T12:40:01.070Z,18.68
2016-11-22T12:41:01.083Z,18.68
2016-11-22T12:42:01.100Z,18.74
2016-11-22T12:43:01.759Z,18.68
2016-11-22T12:44:01.772Z,18.74
2016-11-22T12:45:01.475Z,18.68
2016-11-22T12:46:01.181Z,18.74
2016-11-22T12:47:01.212Z,18.77
2016-11-22T12:48:01.858Z,18.7
2016-11-22T12:49:01.883Z,18.71
2016-11-22T12:50:01.593Z,18.6
2016-11-22T12:51:01.651Z,18.53
2016-11-22T12:52:01.321Z,18.56
2016-11-22T12:53:01.975Z,18.58
2016-11-22T12:54:01.365Z,18.7
2016-11-22T12:55:01.405Z,18.68
2016-11-22T12:56:02.044Z,18.68
2016-11-22T12:57:01.435Z,18.66
2016-11-22T12:58:01.774Z,18.68